Plancius — PBQK — position and weather

sailwx.info

Track history (hours):
 
Tides and Currents Weather Stations Pressure Air Temp Water Temp Dewpoint Dewpoint Depression Visibility Wind Speed Wind Dir Waves Ship Positions

Plancius

Last reported at 2018-Oct-20 13:00 UTC. Time now 2018-Oct-20 13:50 UTC.
Position S 08°06' W 031°48'.

Length 90 m; draft 5.1 m.

Type: Passenger vessel. MMSI: 246573000.

Barometer 1011.3 mb

Date/timePositionNaut miles runAvg speedWind from/ knotsBaromVisibWave heightAir tempDewpointWater temp
2018-Oct-20 13:00S 08°06' W 031°48'1212.0 1011.3
2018-Oct-20 12:00S 07°54' W 031°48'8 8.4 1011.7
2018-Oct-20 11:00S 07°48' W 031°42'1212.0 1011.7
2018-Oct-20 10:00S 07°36' W 031°42'1313.4 1011.6
2018-Oct-20 09:00S 07°24' W 031°36'1313.4 1011.4
2018-Oct-20 08:00S 07°12' W 031°30'1212.0 1010.7
2018-Oct-20 07:00S 07°00' W 031°30'8 8.5 1010.1
2018-Oct-20 06:00S 06°54' W 031°24'1212.0 1009.8
2018-Oct-20 05:00S 06°42' W 031°24'1313.4 1009.3
2018-Oct-20 04:00S 06°30' W 031°18'1212.0 1009.5
2018-Oct-20 03:00S 06°18' W 031°18'8 8.5 1010.1
2018-Oct-20 02:00S 06°12' W 031°12'1212.0 1010.8
2018-Oct-20 01:00S 06°00' W 031°12'1313.4 1011.6
2018-Oct-20 00:00S 05°48' W 031°06'6 6.0 1011.9
2018-Oct-19 23:00S 05°42' W 031°06'1313.4 1011.8
2018-Oct-19 22:00S 05°30' W 031°00'1212.0 1011.5
2018-Oct-19 21:00S 05°18' W 031°00'1313.4 1010.8
2018-Oct-19 20:00S 05°06' W 030°54'8 8.5 1010.2
2018-Oct-19 19:00S 05°00' W 030°48'1212.0 1009.8
2018-Oct-19 18:00S 04°48' W 030°48'1212.0 1009.0
2018-Oct-19 17:00S 04°36' W 030°48'8 8.5 1009.2
2018-Oct-19 16:00S 04°30' W 030°42'1212.0 1009.2
2018-Oct-19 15:00S 04°18' W 030°42'1313.4 1009.9
2018-Oct-19 14:00S 04°06' W 030°36'8 8.5 1011.0
2018-Oct-19 13:00S 04°00' W 030°30'1212.0 1011.7
2018-Oct-19 12:00S 03°48' W 030°30'1313.4 1012.0
2018-Oct-19 11:00S 03°36' W 030°24'6 6.0 1011.6
2018-Oct-19 10:00S 03°30' W 030°24'1313.4 1011.4
2018-Oct-19 09:00S 03°18' W 030°18'1212.0 1010.7
2018-Oct-19 08:00S 03°06' W 030°18'8 8.5 1009.8
2018-Oct-19 07:00S 03°00' W 030°12'1212.0 1009.2
2018-Oct-19 06:00S 02°48' W 030°12'1313.4 1008.6
2018-Oct-19 05:00S 02°36' W 030°06'6 6.0 1008.3
2018-Oct-19 04:00S 02°30' W 030°06'1313.4 1008.5
2018-Oct-19 03:00S 02°18' W 030°00'1212.0 1009.5
2018-Oct-19 02:00S 02°06' W 030°00'19 9.5 1010.3
2018-Oct-19 00:00S 01°48' W 029°54'8 8.5 1011.9
2018-Oct-18 23:00S 01°42' W 029°48'1212.0 1011.7
2018-Oct-18 22:00S 01°30' W 029°48'8 8.5 1011.3
2018-Oct-18 21:00S 01°24' W 029°42'1212.0 1010.6
2018-Oct-18 20:00S 01°12' W 029°42'1313.4 1009.8
2018-Oct-18 19:00S 01°00' W 029°36'6 6.0 1009.2
2018-Oct-18 18:00S 00°54' W 029°36'1313.4 1009.1
2018-Oct-18 17:00S 00°42' W 029°30'6 6.0 1009.1
2018-Oct-18 16:00S 00°36' W 029°30'1313.4 1009.0
2018-Oct-18 15:00S 00°24' W 029°24'6 6.0 1009.9
2018-Oct-18 14:00S 00°18' W 029°24'1313.4 1010.5
2018-Oct-18 13:00S 00°06' W 029°18'1212.0 1011.5
2018-Oct-18 12:00N 00°06' W 029°18'8 8.5 1011.8
2018-Oct-18 11:00N 00°12' W 029°12'4611.4 1011.9
2018-Oct-18 07:00N 00°54' W 028°54'6 6.0 1010.2
2018-Oct-18 06:00N 01°00' W 028°54'1313.4 1009.7
2018-Oct-18 05:00N 01°12' W 028°48'8 8.5 1010.3
2018-Oct-18 04:00N 01°18' W 028°42'1212.0 1010.6
2018-Oct-18 03:00N 01°30' W 028°42'1313.4 1011.4
2018-Oct-18 02:00N 01°42' W 028°36'8 8.5 1012.1
2018-Oct-18 01:00N 01°48' W 028°30'1313.4 1013.1
2018-Oct-18 00:00N 02°00' W 028°24'1212.0 1013.8
2018-Oct-17 23:00N 02°12' W 028°24'8 8.5 1013.7
2018-Oct-17 22:00N 02°18' W 028°18'1313.4 1013.2
2018-Oct-17 21:00N 02°30' W 028°12'6 6.0 1012.4
2018-Oct-17 20:00N 02°36' W 028°12'1313.4 1011.6
2018-Oct-17 19:00N 02°48' W 028°06'1313.4 1011.2
2018-Oct-17 18:00N 03°00' W 028°00'8 8.5 1010.7
2018-Oct-17 17:00N 03°06' W 027°54'1212.0 1010.8
2018-Oct-17 16:00N 03°18' W 027°54'1313.4 1010.8
2018-Oct-17 15:00N 03°30' W 027°48'8 8.5 1011.6
2018-Oct-17 14:00N 03°36' W 027°42'1212.0 1012.3
2018-Oct-17 13:00N 03°48' W 027°42'8 8.5 1012.8
2018-Oct-17 12:00N 03°54' W 027°36'1313.4 1013.3
2018-Oct-17 11:00N 04°06' W 027°30'8 8.5 1013.2
2018-Oct-17 10:00N 04°12' W 027°24'1212.0 1013.0
2018-Oct-17 09:00N 04°24' W 027°24'1313.4 1012.5
2018-Oct-17 08:00N 04°36' W 027°18'8 8.5 1011.6
2018-Oct-17 07:00N 04°42' W 027°12'1212.0 1011.2
2018-Oct-17 06:00N 04°54' W 027°12'8 8.5 1011.1
2018-Oct-17 05:00N 05°00' W 027°06'1313.4 1010.9
2018-Oct-17 04:00N 05°12' W 027°00'1313.4 1011.0
2018-Oct-17 03:00N 05°24' W 026°54'6 6.0 1011.7
2018-Oct-17 02:00N 05°30' W 026°54'1313.4 1012.1
2018-Oct-17 01:00N 05°42' W 026°48'1313.4 1012.7
2018-Oct-17 00:00N 05°54' W 026°42'6 6.0 1012.9
2018-Oct-16 23:00N 06°00' W 026°42'1313.4 1013.0
2018-Oct-16 22:00N 06°12' W 026°36'8 8.5 1012.5
2018-Oct-16 21:00N 06°18' W 026°30'1313.4 1011.8
2018-Oct-16 20:00N 06°30' W 026°24'1212.0 1011.6
2018-Oct-16 19:00N 06°42' W 026°24'8 8.5 1011.6
2018-Oct-16 18:00N 06°48' W 026°18'1212.0 1011.4
2018-Oct-16 17:00N 07°00' W 026°18'8 8.5 1011.3
2018-Oct-16 16:00N 07°06' W 026°12'1313.4 1011.5
2018-Oct-16 15:00N 07°18' W 026°06'6 6.0 1011.8
2018-Oct-16 14:00N 07°24' W 026°06'217 9.4 1012.3
2018-Oct-15 15:00N 10°42' W 024°36'1313.4 1011.5
2018-Oct-15 14:00N 10°54' W 024°30'8 8.4 1012.3
2018-Oct-15 13:00N 11°00' W 024°24'1212.0 1013.2
2018-Oct-15 12:00N 11°12' W 024°24'1313.4 1013.7
2018-Oct-15 11:00N 11°24' W 024°18'8 8.4 1014.3
2018-Oct-15 10:00N 11°30' W 024°12'1313.4 1014.2
2018-Oct-15 09:00N 11°42' W 024°06'1212.0 1013.6
2018-Oct-15 08:00N 11°54' W 024°06'8 8.4 1013.1
2018-Oct-15 07:00N 12°00' W 024°00'1313.4 1012.6
2018-Oct-15 06:00N 12°12' W 023°54'1313.4 1012.3
2018-Oct-15 05:00N 12°24' W 023°48'6 6.0 1012.3
2018-Oct-15 04:00N 12°30' W 023°48'1313.4 1012.1
2018-Oct-15 03:00N 12°42' W 023°42'8 8.4 1012.3
2018-Oct-15 02:00N 12°48' W 023°36'2512.4 1012.7
2018-Oct-15 00:00N 13°12' W 023°30'8 8.4 1013.7
2018-Oct-14 23:00N 13°18' W 023°24'1313.3 1013.4
2018-Oct-14 22:00N 13°30' W 023°18'1313.3 1013.6
2018-Oct-14 21:00N 13°42' W 023°12'6 6.0 1013.1
2018-Oct-14 20:00N 13°48' W 023°12'1313.3 1012.6
2018-Oct-14 19:00N 14°00' W 023°06'1313.3 1011.9
2018-Oct-14 18:00N 14°12' W 023°00'1313.3 1011.7
2018-Oct-14 17:00N 14°24' W 022°54'8 8.4 1011.8
2018-Oct-14 16:00N 14°30' W 022°48'1212.0 1012.2
2018-Oct-14 15:00N 14°42' W 022°48'1313.3 1013.1
2018-Oct-14 14:00N 14°54' W 022°42'8 8.3 1013.5
2018-Oct-14 13:00N 15°00' W 022°36'1313.3 1014.2
2018-Oct-14 12:00N 15°12' W 022°30'6 6.0 1014.9
2018-Oct-14 11:00N 15°18' W 022°30'1313.3 1015.2
2018-Oct-14 10:00N 15°30' W 022°24'1313.3 1015.5
2018-Oct-14 09:00N 15°42' W 022°18'6 6.0 1015.0
2018-Oct-14 08:00N 15°48' W 022°18'1313.3 1014.4
2018-Oct-14 07:00N 16°00' W 022°12'1313.3 1013.9
2018-Oct-14 06:00N 16°12' W 022°06'8 8.3 1013.2
2018-Oct-14 05:00N 16°18' W 022°00'1313.3 1013.4
2018-Oct-14 04:00N 16°30' W 021°54'1212.0 1013.4
2018-Oct-14 03:00N 16°42' W 021°54'8 8.3 1013.7
2018-Oct-14 02:00N 16°48' W 021°48'1313.3 1014.3
2018-Oct-14 01:00N 17°00' W 021°42'1212.0 1015.1
2018-Oct-14 00:00N 17°12' W 021°42'8 8.3 1015.5
2018-Oct-13 23:00N 17°18' W 021°36'1313.3 1015.5
2018-Oct-13 22:00N 17°30' W 021°30'1313.3 1015.7
2018-Oct-13 21:00N 17°42' W 021°24'8 8.3 1015.6
2018-Oct-13 20:00N 17°48' W 021°18'1212.0 1014.8
2018-Oct-13 19:00N 18°00' W 021°18'1313.3 1014.4
2018-Oct-13 18:00N 18°12' W 021°12'8 8.3 1014.3
2018-Oct-13 17:00N 18°18' W 021°06'1313.3 1014.6
2018-Oct-13 16:00N 18°30' W 021°00'1313.3 1014.6
2018-Oct-13 15:00N 18°42' W 020°54'1212.0 1015.5
2018-Oct-13 14:00N 18°54' W 020°54'8 8.3 1016.0
2018-Oct-13 13:00N 19°00' W 020°48'1313.3 1016.9
2018-Oct-13 12:00N 19°12' W 020°42'1313.3 1017.6
2018-Oct-13 11:00N 19°24' W 020°36'8 8.2 1018.0
2018-Oct-13 10:00N 19°30' W 020°30'1313.3 1017.9
2018-Oct-13 09:00N 19°42' W 020°24'1212.0 1017.3
2018-Oct-13 08:00N 19°54' W 020°24'1313.3 1016.9
2018-Oct-13 07:00N 20°06' W 020°18'8 8.2 1016.8
2018-Oct-13 06:00N 20°12' W 020°12'1313.3 1016.5
2018-Oct-13 05:00N 20°24' W 020°06'1313.3 1016.4
2018-Oct-13 04:00N 20°36' W 020°00'1212.0 1016.6
2018-Oct-13 03:00N 20°48' W 020°00'8 8.2 1016.6
2018-Oct-13 02:00N 20°54' W 019°54'1313.2 1016.7
2018-Oct-13 01:00N 21°06' W 019°48'1313.2 1017.2
2018-Oct-13 00:00N 21°18' W 019°42'6 6.0 1017.6
2018-Oct-12 23:00N 21°24' W 019°42'1313.2 1017.9
2018-Oct-12 22:00N 21°36' W 019°36'1313.2 1017.9
2018-Oct-12 21:00N 21°48' W 019°30'8 8.2 1017.2
2018-Oct-12 20:00N 21°54' W 019°24'1313.2 1016.6
2018-Oct-12 19:00N 22°06' W 019°18'1212.0 1016.4
2018-Oct-12 18:00N 22°18' W 019°18'8 8.2 1016.2
2018-Oct-12 17:00N 22°24' W 019°12'1313.2 1016.3
2018-Oct-12 16:00N 22°36' W 019°06'1313.2 1016.6
2018-Oct-12 15:00N 22°48' W 019°00'1313.2 1016.8
2018-Oct-12 14:00N 23°00' W 018°54'8 8.2 1017.1
2018-Oct-12 13:00N 23°06' W 018°48'1212.0 1017.7
2018-Oct-12 12:00N 23°18' W 018°48'1313.2 1018.9
2018-Oct-12 11:00N 23°30' W 018°42'8 8.1 1019.1
2018-Oct-12 10:00N 23°36' W 018°36'1313.2 1019.0
2018-Oct-12 09:00N 23°48' W 018°30'6 6.0 1019.0
2018-Oct-12 08:00N 23°54' W 018°30'1313.2 1018.7
2018-Oct-12 07:00N 24°06' W 018°24'1313.2 1018.0
2018-Oct-12 06:00N 24°18' W 018°18'1313.2 1017.3
2018-Oct-12 05:00N 24°30' W 018°12'8 8.1 1017.0
2018-Oct-12 04:00N 24°36' W 018°06'1313.2 1016.6
2018-Oct-12 03:00N 24°48' W 018°00'1212.0 1017.0
2018-Oct-12 02:00N 25°00' W 018°00'8 8.1 1017.4
2018-Oct-12 01:00N 25°06' W 017°54'1313.2 1017.9
2018-Oct-12 00:00N 25°18' W 017°48'8 8.1 1018.4
2018-Oct-11 23:00N 25°24' W 017°42'1212.0 1018.9
2018-Oct-11 22:00N 25°36' W 017°42'1313.2 1019.0
2018-Oct-11 21:00N 25°48' W 017°36'8 8.1 1018.4
2018-Oct-11 20:00N 25°54' W 017°30'1313.2 1018.0
2018-Oct-11 19:00N 26°06' W 017°24'1313.2 1017.2
2018-Oct-11 18:00N 26°18' W 017°18'8 8.1 1016.8
2018-Oct-11 17:00N 26°24' W 017°12'1212.0 1016.7
2018-Oct-11 16:00N 26°36' W 017°12'1313.1 1016.6
2018-Oct-11 15:00N 26°48' W 017°06'2110.5 1017.0
2018-Oct-11 13:00N 27°06' W 016°54'1313.1 1017.6
2018-Oct-11 12:00N 27°18' W 016°48'6 6.0 1017.9
2018-Oct-11 11:00N 27°24' W 016°48'1313.1 1018.1
2018-Oct-11 10:00N 27°36' W 016°42'1313.1 1017.7
2018-Oct-11 09:00N 27°48' W 016°36'8 8.0 1017.3
2018-Oct-11 08:00N 27°54' W 016°30'1212.2 1016.4
2018-Oct-11 07:00N 28°00' W 016°18'1313.1 1015.5
2018-Oct-11 06:00N 28°12' W 016°12'146.7 1015.0
2018-Oct-11 05:58N 28°11' W 016°11'611.7
2018-Oct-11 05:29N 28°15' W 016°07'511.8
2018-Oct-11 05:03N 28°19' W 016°03'111.8
2018-Oct-11 05:01N 28°20' W 016°03'3172.5
2018-Oct-11 05:00N 28°18' W 016°00'612.6 1014.8
2018-Oct-11 04:30N 28°24' W 015°58'511.1
2018-Oct-11 04:03N 28°28' W 015°55'110.9
2018-Oct-11 04:00N 28°28' W 015°54'2118.9
2018-Oct-11 04:00N 28°30' W 015°54'4 8.4 1014.7
2018-Oct-11 03:31N 28°32' W 015°50'511.3
2018-Oct-11 03:03N 28°36' W 015°47'111.4
2018-Oct-11 03:00N 28°37' W 015°46'2113.5
2018-Oct-11 03:00N 28°36' W 015°48'713.9 1014.5
2018-Oct-11 02:30N 28°42' W 015°45'511.3
2018-Oct-11 02:02N 28°47' W 015°44'011.0
2018-Oct-11 02:00N 28°48' W 015°44'2132.4
2018-Oct-11 02:00N 28°48' W 015°42'611.6 1014.9
2018-Oct-11 01:30N 28°53' W 015°44'713.3
2018-Oct-11 01:00N 29°00' W 015°42'1212.0 1014.9
2018-Oct-11 00:00N 29°12' W 015°42'1212.0 1015.1
2018-Oct-10 23:00N 29°24' W 015°42'2110.4 1015.0
2018-Oct-10 21:00N 29°42' W 015°30'1212.0 1013.9
2018-Oct-10 20:00N 29°54' W 015°30'1313.1 1013.0
2018-Oct-10 19:00N 30°06' W 015°24'1313.1 1012.2
2018-Oct-10 18:00N 30°18' W 015°18'1212.0 1011.6
2018-Oct-10 17:00N 30°30' W 015°18'   1011.0
Track history (hours):
 
Tides and Currents Weather Stations Pressure Air Temp Water Temp Dewpoint Dewpoint Depression Visibility Wind Speed Wind Dir Waves Ship Positions

Plancius

Last reported at 2018-Oct-20 13:00 UTC. Time now 2018-Oct-20 13:50 UTC.
Position S 08°06' W 031°48'.

Length 90 m; draft 5.1 m.

Type: Passenger vessel. MMSI: 246573000.

Barometer 1011.3 mb

Date/timePositionNaut miles runAvg speedWind from/ knotsBaromVisibWave heightAir tempDewpointWater temp
2018-Oct-20 13:00S 08°06' W 031°48'1212.0 1011.3
2018-Oct-20 12:00S 07°54' W 031°48'8 8.4 1011.7
2018-Oct-20 11:00S 07°48' W 031°42'1212.0 1011.7
2018-Oct-20 10:00S 07°36' W 031°42'1313.4 1011.6
2018-Oct-20 09:00S 07°24' W 031°36'1313.4 1011.4
2018-Oct-20 08:00S 07°12' W 031°30'1212.0 1010.7
2018-Oct-20 07:00S 07°00' W 031°30'8 8.5 1010.1
2018-Oct-20 06:00S 06°54' W 031°24'1212.0 1009.8
2018-Oct-20 05:00S 06°42' W 031°24'1313.4 1009.3
2018-Oct-20 04:00S 06°30' W 031°18'1212.0 1009.5
2018-Oct-20 03:00S 06°18' W 031°18'8 8.5 1010.1
2018-Oct-20 02:00S 06°12' W 031°12'1212.0 1010.8
2018-Oct-20 01:00S 06°00' W 031°12'1313.4 1011.6
2018-Oct-20 00:00S 05°48' W 031°06'6 6.0 1011.9
2018-Oct-19 23:00S 05°42' W 031°06'1313.4 1011.8
2018-Oct-19 22:00S 05°30' W 031°00'1212.0 1011.5
2018-Oct-19 21:00S 05°18' W 031°00'1313.4 1010.8
2018-Oct-19 20:00S 05°06' W 030°54'8 8.5 1010.2
2018-Oct-19 19:00S 05°00' W 030°48'1212.0 1009.8
2018-Oct-19 18:00S 04°48' W 030°48'1212.0 1009.0
2018-Oct-19 17:00S 04°36' W 030°48'8 8.5 1009.2
2018-Oct-19 16:00S 04°30' W 030°42'1212.0 1009.2
2018-Oct-19 15:00S 04°18' W 030°42'1313.4 1009.9
2018-Oct-19 14:00S 04°06' W 030°36'8 8.5 1011.0
2018-Oct-19 13:00S 04°00' W 030°30'1212.0 1011.7
2018-Oct-19 12:00S 03°48' W 030°30'1313.4 1012.0
2018-Oct-19 11:00S 03°36' W 030°24'6 6.0 1011.6
2018-Oct-19 10:00S 03°30' W 030°24'1313.4 1011.4
2018-Oct-19 09:00S 03°18' W 030°18'1212.0 1010.7
2018-Oct-19 08:00S 03°06' W 030°18'8 8.5 1009.8
2018-Oct-19 07:00S 03°00' W 030°12'1212.0 1009.2
2018-Oct-19 06:00S 02°48' W 030°12'1313.4 1008.6
2018-Oct-19 05:00S 02°36' W 030°06'6 6.0 1008.3
2018-Oct-19 04:00S 02°30' W 030°06'1313.4 1008.5
2018-Oct-19 03:00S 02°18' W 030°00'1212.0 1009.5
2018-Oct-19 02:00S 02°06' W 030°00'19 9.5 1010.3
2018-Oct-19 00:00S 01°48' W 029°54'8 8.5 1011.9
2018-Oct-18 23:00S 01°42' W 029°48'1212.0 1011.7
2018-Oct-18 22:00S 01°30' W 029°48'8 8.5 1011.3
2018-Oct-18 21:00S 01°24' W 029°42'1212.0 1010.6
2018-Oct-18 20:00S 01°12' W 029°42'1313.4 1009.8
2018-Oct-18 19:00S 01°00' W 029°36'6 6.0 1009.2
2018-Oct-18 18:00S 00°54' W 029°36'1313.4 1009.1
2018-Oct-18 17:00S 00°42' W 029°30'6 6.0 1009.1
2018-Oct-18 16:00S 00°36' W 029°30'1313.4 1009.0
2018-Oct-18 15:00S 00°24' W 029°24'6 6.0 1009.9
2018-Oct-18 14:00S 00°18' W 029°24'1313.4 1010.5
2018-Oct-18 13:00S 00°06' W 029°18'1212.0 1011.5
2018-Oct-18 12:00N 00°06' W 029°18'8 8.5 1011.8
2018-Oct-18 11:00N 00°12' W 029°12'4611.4 1011.9
2018-Oct-18 07:00N 00°54' W 028°54'6 6.0 1010.2
2018-Oct-18 06:00N 01°00' W 028°54'1313.4 1009.7
2018-Oct-18 05:00N 01°12' W 028°48'8 8.5 1010.3
2018-Oct-18 04:00N 01°18' W 028°42'1212.0 1010.6
2018-Oct-18 03:00N 01°30' W 028°42'1313.4 1011.4
2018-Oct-18 02:00N 01°42' W 028°36'8 8.5 1012.1
2018-Oct-18 01:00N 01°48' W 028°30'1313.4 1013.1
2018-Oct-18 00:00N 02°00' W 028°24'1212.0 1013.8
2018-Oct-17 23:00N 02°12' W 028°24'8 8.5 1013.7
2018-Oct-17 22:00N 02°18' W 028°18'1313.4 1013.2
2018-Oct-17 21:00N 02°30' W 028°12'6 6.0 1012.4
2018-Oct-17 20:00N 02°36' W 028°12'1313.4 1011.6
2018-Oct-17 19:00N 02°48' W 028°06'1313.4 1011.2
2018-Oct-17 18:00N 03°00' W 028°00'8 8.5 1010.7
2018-Oct-17 17:00N 03°06' W 027°54'1212.0 1010.8
2018-Oct-17 16:00N 03°18' W 027°54'1313.4 1010.8
2018-Oct-17 15:00N 03°30' W 027°48'8 8.5 1011.6
2018-Oct-17 14:00N 03°36' W 027°42'1212.0 1012.3
2018-Oct-17 13:00N 03°48' W 027°42'8 8.5 1012.8
2018-Oct-17 12:00N 03°54' W 027°36'1313.4 1013.3
2018-Oct-17 11:00N 04°06' W 027°30'8 8.5 1013.2
2018-Oct-17 10:00N 04°12' W 027°24'1212.0 1013.0
2018-Oct-17 09:00N 04°24' W 027°24'1313.4 1012.5
2018-Oct-17 08:00N 04°36' W 027°18'8 8.5 1011.6
2018-Oct-17 07:00N 04°42' W 027°12'1212.0 1011.2
2018-Oct-17 06:00N 04°54' W 027°12'8 8.5 1011.1
2018-Oct-17 05:00N 05°00' W 027°06'1313.4 1010.9
2018-Oct-17 04:00N 05°12' W 027°00'1313.4 1011.0
2018-Oct-17 03:00N 05°24' W 026°54'6 6.0 1011.7
2018-Oct-17 02:00N 05°30' W 026°54'1313.4 1012.1
2018-Oct-17 01:00N 05°42' W 026°48'1313.4 1012.7
2018-Oct-17 00:00N 05°54' W 026°42'6 6.0 1012.9
2018-Oct-16 23:00N 06°00' W 026°42'1313.4 1013.0
2018-Oct-16 22:00N 06°12' W 026°36'8 8.5 1012.5
2018-Oct-16 21:00N 06°18' W 026°30'1313.4 1011.8
2018-Oct-16 20:00N 06°30' W 026°24'1212.0 1011.6
2018-Oct-16 19:00N 06°42' W 026°24'8 8.5 1011.6
2018-Oct-16 18:00N 06°48' W 026°18'1212.0 1011.4
2018-Oct-16 17:00N 07°00' W 026°18'8 8.5 1011.3
2018-Oct-16 16:00N 07°06' W 026°12'1313.4 1011.5
2018-Oct-16 15:00N 07°18' W 026°06'6 6.0 1011.8
2018-Oct-16 14:00N 07°24' W 026°06'217 9.4 1012.3
2018-Oct-15 15:00N 10°42' W 024°36'1313.4 1011.5
2018-Oct-15 14:00N 10°54' W 024°30'8 8.4 1012.3
2018-Oct-15 13:00N 11°00' W 024°24'1212.0 1013.2
2018-Oct-15 12:00N 11°12' W 024°24'1313.4 1013.7
2018-Oct-15 11:00N 11°24' W 024°18'8 8.4 1014.3
2018-Oct-15 10:00N 11°30' W 024°12'1313.4 1014.2
2018-Oct-15 09:00N 11°42' W 024°06'1212.0 1013.6
2018-Oct-15 08:00N 11°54' W 024°06'8 8.4 1013.1
2018-Oct-15 07:00N 12°00' W 024°00'1313.4 1012.6
2018-Oct-15 06:00N 12°12' W 023°54'1313.4 1012.3
2018-Oct-15 05:00N 12°24' W 023°48'6 6.0 1012.3
2018-Oct-15 04:00N 12°30' W 023°48'1313.4 1012.1
2018-Oct-15 03:00N 12°42' W 023°42'8 8.4 1012.3
2018-Oct-15 02:00N 12°48' W 023°36'2512.4 1012.7
2018-Oct-15 00:00N 13°12' W 023°30'8 8.4 1013.7
2018-Oct-14 23:00N 13°18' W 023°24'1313.3 1013.4
2018-Oct-14 22:00N 13°30' W 023°18'1313.3 1013.6
2018-Oct-14 21:00N 13°42' W 023°12'6 6.0 1013.1
2018-Oct-14 20:00N 13°48' W 023°12'1313.3 1012.6
2018-Oct-14 19:00N 14°00' W 023°06'1313.3 1011.9
2018-Oct-14 18:00N 14°12' W 023°00'1313.3 1011.7
2018-Oct-14 17:00N 14°24' W 022°54'8 8.4 1011.8
2018-Oct-14 16:00N 14°30' W 022°48'1212.0 1012.2
2018-Oct-14 15:00N 14°42' W 022°48'1313.3 1013.1
2018-Oct-14 14:00N 14°54' W 022°42'8 8.3 1013.5
2018-Oct-14 13:00N 15°00' W 022°36'1313.3 1014.2
2018-Oct-14 12:00N 15°12' W 022°30'6 6.0 1014.9
2018-Oct-14 11:00N 15°18' W 022°30'1313.3 1015.2
2018-Oct-14 10:00N 15°30' W 022°24'1313.3 1015.5
2018-Oct-14 09:00N 15°42' W 022°18'6 6.0 1015.0
2018-Oct-14 08:00N 15°48' W 022°18'1313.3 1014.4
2018-Oct-14 07:00N 16°00' W 022°12'1313.3 1013.9
2018-Oct-14 06:00N 16°12' W 022°06'8 8.3 1013.2
2018-Oct-14 05:00N 16°18' W 022°00'1313.3 1013.4
2018-Oct-14 04:00N 16°30' W 021°54'1212.0 1013.4
2018-Oct-14 03:00N 16°42' W 021°54'8 8.3 1013.7
2018-Oct-14 02:00N 16°48' W 021°48'1313.3 1014.3
2018-Oct-14 01:00N 17°00' W 021°42'1212.0 1015.1
2018-Oct-14 00:00N 17°12' W 021°42'8 8.3 1015.5
2018-Oct-13 23:00N 17°18' W 021°36'1313.3 1015.5
2018-Oct-13 22:00N 17°30' W 021°30'1313.3 1015.7
2018-Oct-13 21:00N 17°42' W 021°24'8 8.3 1015.6
2018-Oct-13 20:00N 17°48' W 021°18'1212.0 1014.8
2018-Oct-13 19:00N 18°00' W 021°18'1313.3 1014.4
2018-Oct-13 18:00N 18°12' W 021°12'8 8.3 1014.3
2018-Oct-13 17:00N 18°18' W 021°06'1313.3 1014.6
2018-Oct-13 16:00N 18°30' W 021°00'1313.3 1014.6
2018-Oct-13 15:00N 18°42' W 020°54'1212.0 1015.5
2018-Oct-13 14:00N 18°54' W 020°54'8 8.3 1016.0
2018-Oct-13 13:00N 19°00' W 020°48'1313.3 1016.9
2018-Oct-13 12:00N 19°12' W 020°42'1313.3 1017.6
2018-Oct-13 11:00N 19°24' W 020°36'8 8.2 1018.0
2018-Oct-13 10:00N 19°30' W 020°30'1313.3 1017.9
2018-Oct-13 09:00N 19°42' W 020°24'1212.0 1017.3
2018-Oct-13 08:00N 19°54' W 020°24'1313.3 1016.9
2018-Oct-13 07:00N 20°06' W 020°18'8 8.2 1016.8
2018-Oct-13 06:00N 20°12' W 020°12'1313.3 1016.5
2018-Oct-13 05:00N 20°24' W 020°06'1313.3 1016.4
2018-Oct-13 04:00N 20°36' W 020°00'1212.0 1016.6
2018-Oct-13 03:00N 20°48' W 020°00'8 8.2 1016.6
2018-Oct-13 02:00N 20°54' W 019°54'1313.2 1016.7
2018-Oct-13 01:00N 21°06' W 019°48'1313.2 1017.2
2018-Oct-13 00:00N 21°18' W 019°42'6 6.0 1017.6
2018-Oct-12 23:00N 21°24' W 019°42'1313.2 1017.9
2018-Oct-12 22:00N 21°36' W 019°36'1313.2 1017.9
2018-Oct-12 21:00N 21°48' W 019°30'8 8.2 1017.2
2018-Oct-12 20:00N 21°54' W 019°24'1313.2 1016.6
2018-Oct-12 19:00N 22°06' W 019°18'1212.0 1016.4
2018-Oct-12 18:00N 22°18' W 019°18'8 8.2 1016.2
2018-Oct-12 17:00N 22°24' W 019°12'1313.2 1016.3
2018-Oct-12 16:00N 22°36' W 019°06'1313.2 1016.6
2018-Oct-12 15:00N 22°48' W 019°00'1313.2 1016.8
2018-Oct-12 14:00N 23°00' W 018°54'8 8.2 1017.1
2018-Oct-12 13:00N 23°06' W 018°48'1212.0 1017.7
2018-Oct-12 12:00N 23°18' W 018°48'1313.2 1018.9
2018-Oct-12 11:00N 23°30' W 018°42'8 8.1 1019.1
2018-Oct-12 10:00N 23°36' W 018°36'1313.2 1019.0
2018-Oct-12 09:00N 23°48' W 018°30'6 6.0 1019.0
2018-Oct-12 08:00N 23°54' W 018°30'1313.2 1018.7
2018-Oct-12 07:00N 24°06' W 018°24'1313.2 1018.0
2018-Oct-12 06:00N 24°18' W 018°18'1313.2 1017.3
2018-Oct-12 05:00N 24°30' W 018°12'8 8.1 1017.0
2018-Oct-12 04:00N 24°36' W 018°06'1313.2 1016.6
2018-Oct-12 03:00N 24°48' W 018°00'1212.0 1017.0
2018-Oct-12 02:00N 25°00' W 018°00'8 8.1 1017.4
2018-Oct-12 01:00N 25°06' W 017°54'1313.2 1017.9
2018-Oct-12 00:00N 25°18' W 017°48'8 8.1 1018.4
2018-Oct-11 23:00N 25°24' W 017°42'1212.0 1018.9
2018-Oct-11 22:00N 25°36' W 017°42'1313.2 1019.0
2018-Oct-11 21:00N 25°48' W 017°36'8 8.1 1018.4
2018-Oct-11 20:00N 25°54' W 017°30'1313.2 1018.0
2018-Oct-11 19:00N 26°06' W 017°24'1313.2 1017.2
2018-Oct-11 18:00N 26°18' W 017°18'8 8.1 1016.8
2018-Oct-11 17:00N 26°24' W 017°12'1212.0 1016.7
2018-Oct-11 16:00N 26°36' W 017°12'1313.1 1016.6
2018-Oct-11 15:00N 26°48' W 017°06'2110.5 1017.0
2018-Oct-11 13:00N 27°06' W 016°54'1313.1 1017.6
2018-Oct-11 12:00N 27°18' W 016°48'6 6.0 1017.9
2018-Oct-11 11:00N 27°24' W 016°48'1313.1 1018.1
2018-Oct-11 10:00N 27°36' W 016°42'1313.1 1017.7
2018-Oct-11 09:00N 27°48' W 016°36'8 8.0 1017.3
2018-Oct-11 08:00N 27°54' W 016°30'1212.2 1016.4
2018-Oct-11 07:00N 28°00' W 016°18'1313.1 1015.5
2018-Oct-11 06:00N 28°12' W 016°12'146.7 1015.0
2018-Oct-11 05:58N 28°11' W 016°11'611.7
2018-Oct-11 05:29N 28°15' W 016°07'511.8
2018-Oct-11 05:03N 28°19' W 016°03'111.8
2018-Oct-11 05:01N 28°20' W 016°03'3172.5
2018-Oct-11 05:00N 28°18' W 016°00'612.6 1014.8
2018-Oct-11 04:30N 28°24' W 015°58'511.1
2018-Oct-11 04:03N 28°28' W 015°55'110.9
2018-Oct-11 04:00N 28°28' W 015°54'2118.9
2018-Oct-11 04:00N 28°30' W 015°54'4 8.4 1014.7
2018-Oct-11 03:31N 28°32' W 015°50'511.3
2018-Oct-11 03:03N 28°36' W 015°47'111.4
2018-Oct-11 03:00N 28°37' W 015°46'2113.5
2018-Oct-11 03:00N 28°36' W 015°48'713.9 1014.5
2018-Oct-11 02:30N 28°42' W 015°45'511.3
2018-Oct-11 02:02N 28°47' W 015°44'011.0
2018-Oct-11 02:00N 28°48' W 015°44'2132.4
2018-Oct-11 02:00N 28°48' W 015°42'611.6 1014.9
2018-Oct-11 01:30N 28°53' W 015°44'713.3
2018-Oct-11 01:00N 29°00' W 015°42'1212.0 1014.9
2018-Oct-11 00:00N 29°12' W 015°42'1212.0 1015.1
2018-Oct-10 23:00N 29°24' W 015°42'2110.4 1015.0
2018-Oct-10 21:00N 29°42' W 015°30'1212.0 1013.9
2018-Oct-10 20:00N 29°54' W 015°30'1313.1 1013.0
2018-Oct-10 19:00N 30°06' W 015°24'1313.1 1012.2
2018-Oct-10 18:00N 30°18' W 015°18'1212.0 1011.6
2018-Oct-10 17:00N 30°30' W 015°18'   1011.0

Dump ship's entire track history